Time;durP1;ratioP1;P1;durP2;ratioP2;P2;SDS_P1;SDS_P2;PMS_P1;PMS_P2;Temp;Humidity;BMP_temperature;BMP_pressure;BME280_temperature;BME280_humidity;BME280_pressure;Samples;Min_cycle;Max_cycle;Signal;HPM_P1;HPM_P2
2022/02/20 00:00:11;;;;;;;;;;;7.30;99.90;;;;;;5036230;28;19925;-75
2022/02/20 00:02:38;;;;;;;;;;;7.30;99.90;;;;;;5039252;28;19925;-74
2022/02/20 00:05:05;;;;;;;;;;;7.30;99.90;;;;;;5034754;28;20688;-75
2022/02/20 00:07:32;;;;;;;;;;;7.20;99.90;;;;;;5035086;28;19925;-75
2022/02/20 00:09:58;;;;;;;;;;;7.20;99.90;;;;;;5040900;28;19925;-75
2022/02/20 00:12:25;;;;;;;;;;;7.10;99.90;;;;;;5046551;28;19932;-76
2022/02/20 00:14:53;;;;;;;;;;;7.10;99.90;;;;;;5044731;28;19925;-75
2022/02/20 00:17:20;;;;;;;;;;;7.00;99.90;;;;;;5047417;28;19925;-75
2022/02/20 00:19:47;;;;;;;;;;;7.00;99.90;;;;;;5040740;28;19931;-76
2022/02/20 00:22:14;;;;;;;;;;;7.00;99.90;;;;;;5039898;28;20417;-75
2022/02/20 00:24:40;;;;;;;;;;;6.90;99.90;;;;;;5040087;28;19928;-75
2022/02/20 00:27:07;;;;;;;;;;;6.90;99.90;;;;;;5051147;28;20023;-75
2022/02/20 00:29:34;;;;;;;;;;;6.80;99.90;;;;;;5035528;28;19935;-74
2022/02/20 00:32:02;;;;;;;;;;;6.80;99.90;;;;;;5045754;28;19925;-74
2022/02/20 00:34:29;;;;;;;;;;;6.80;99.90;;;;;;5034946;28;20402;-74
2022/02/20 00:36:55;;;;;;;;;;;6.80;99.90;;;;;;5033611;28;19925;-73
2022/02/20 00:39:22;;;;;;;;;;;6.90;99.90;;;;;;5035582;28;19931;-74
2022/02/20 00:41:49;;;;;;;;;;;6.90;99.90;;;;;;5049446;28;20418;-74
2022/02/20 00:44:15;;;;;;;;;;;6.80;99.90;;;;;;5036602;28;20283;-75
2022/02/20 00:46:42;;;;;;;;;;;6.70;99.90;;;;;;5034969;28;19965;-75
2022/02/20 00:49:10;;;;;;;;;;;6.70;99.90;;;;;;5044287;28;19925;-75
2022/02/20 00:51:38;;;;;;;;;;;6.70;99.90;;;;;;5034454;28;19932;-75
2022/02/20 00:54:08;;;;;;;;;;;6.60;99.90;;;;;;5033984;28;19932;-76
2022/02/20 00:56:34;;;;;;;;;;;6.70;99.90;;;;;;5044837;28;19968;-75
2022/02/20 00:59:01;;;;;;;;;;;6.70;99.90;;;;;;5051942;28;19979;-75
2022/02/20 01:01:28;;;;;;;;;;;6.70;99.90;;;;;;5037945;28;20015;-73
2022/02/20 01:03:55;;;;;;;;;;;6.70;99.90;;;;;;5045957;28;19993;-75
2022/02/20 01:06:23;;;;;;;;;;;6.60;99.90;;;;;;5047211;28;19925;-75
2022/02/20 01:08:50;;;;;;;;;;;6.60;99.90;;;;;;5038425;28;19925;-75
2022/02/20 01:11:17;;;;;;;;;;;6.60;99.90;;;;;;5035433;28;19925;-75
2022/02/20 01:13:44;;;;;;;;;;;6.60;99.90;;;;;;5035731;28;19931;-75
2022/02/20 01:16:11;;;;;;;;;;;6.50;99.90;;;;;;5041574;28;19925;-76
2022/02/20 01:18:37;;;;;;;;;;;6.50;99.90;;;;;;5037028;28;20012;-75
2022/02/20 01:21:04;;;;;;;;;;;6.40;99.90;;;;;;5044028;28;19929;-75
2022/02/20 01:23:32;;;;;;;;;;;6.40;99.90;;;;;;5033180;28;19932;-75
2022/02/20 01:25:59;;;;;;;;;;;6.30;99.90;;;;;;5035558;28;19929;-75
2022/02/20 01:28:26;;;;;;;;;;;6.30;99.90;;;;;;5037169;28;20012;-75
2022/02/20 01:30:52;;;;;;;;;;;6.20;99.90;;;;;;5033445;28;20360;-75
2022/02/20 01:33:19;;;;;;;;;;;6.10;99.90;;;;;;5039130;28;20380;-75
2022/02/20 01:35:46;;;;;;;;;;;6.10;99.90;;;;;;5033424;28;19929;-75
2022/02/20 01:38:15;;;;;;;;;;;6.10;99.90;;;;;;5040263;28;19924;-75
2022/02/20 01:40:43;;;;;;;;;;;6.00;99.90;;;;;;5038379;28;19926;-76
2022/02/20 01:43:12;;;;;;;;;;;6.00;99.90;;;;;;5040740;28;19924;-76
2022/02/20 01:45:39;;;;;;;;;;;6.00;99.90;;;;;;5041622;28;19932;-75
2022/02/20 01:48:06;;;;;;;;;;;5.90;99.90;;;;;;5049779;28;19932;-75
2022/02/20 01:50:32;;;;;;;;;;;5.90;99.90;;;;;;5040963;28;19929;-76
2022/02/20 01:52:59;;;;;;;;;;;5.80;99.90;;;;;;5047258;28;19935;-75
2022/02/20 01:55:26;;;;;;;;;;;5.80;99.90;;;;;;5035390;28;20356;-75
2022/02/20 01:57:54;;;;;;;;;;;5.70;99.90;;;;;;5031673;28;19926;-75
2022/02/20 02:00:22;;;;;;;;;;;5.70;99.90;;;;;;5036602;28;20331;-75
2022/02/20 02:02:49;;;;;;;;;;;5.60;99.90;;;;;;5040962;28;20377;-76
2022/02/20 02:05:16;;;;;;;;;;;5.60;99.90;;;;;;5032652;28;19932;-75
2022/02/20 02:07:43;;;;;;;;;;;5.60;99.90;;;;;;5033364;28;19925;-75
2022/02/20 02:10:09;;;;;;;;;;;5.50;99.90;;;;;;5035935;28;20019;-75
2022/02/20 02:12:37;;;;;;;;;;;5.50;99.90;;;;;;5032772;28;19925;-75
2022/02/20 02:15:06;;;;;;;;;;;5.50;99.90;;;;;;5033685;28;19932;-75
2022/02/20 02:17:33;;;;;;;;;;;5.40;99.90;;;;;;5031885;28;19944;-75
2022/02/20 02:20:00;;;;;;;;;;;5.40;99.90;;;;;;5036576;28;19928;-75
2022/02/20 02:22:29;;;;;;;;;;;5.40;99.90;;;;;;5031982;28;20402;-76
2022/02/20 02:24:56;;;;;;;;;;;5.40;99.90;;;;;;5036547;28;19925;-76
2022/02/20 02:27:23;;;;;;;;;;;5.40;99.90;;;;;;5033225;28;19931;-76
2022/02/20 02:29:50;;;;;;;;;;;5.50;99.90;;;;;;5036194;28;20414;-75
2022/02/20 02:32:17;;;;;;;;;;;5.50;99.90;;;;;;5038651;28;19924;-75
2022/02/20 02:34:44;;;;;;;;;;;5.60;99.90;;;;;;5032342;28;19925;-76
2022/02/20 02:37:11;;;;;;;;;;;5.50;99.90;;;;;;5031728;28;19939;-76
2022/02/20 02:39:40;;;;;;;;;;;5.50;99.90;;;;;;5034217;28;19929;-75
2022/02/20 02:42:09;;;;;;;;;;;5.50;99.90;;;;;;5034705;28;19925;-76
2022/02/20 02:44:36;;;;;;;;;;;5.40;99.90;;;;;;5045040;28;19929;-76
2022/02/20 02:47:03;;;;;;;;;;;5.50;99.90;;;;;;5037697;28;19933;-75
2022/02/20 02:49:29;;;;;;;;;;;5.60;99.90;;;;;;5039723;28;20005;-76
2022/02/20 02:51:56;;;;;;;;;;;5.70;99.90;;;;;;5044137;28;19947;-76
2022/02/20 02:54:23;;;;;;;;;;;5.70;99.90;;;;;;5039840;28;19931;-77
2022/02/20 02:56:51;;;;;;;;;;;5.80;99.90;;;;;;5055112;28;19931;-75
2022/02/20 02:59:19;;;;;;;;;;;5.80;99.90;;;;;;5045455;28;19935;-75
2022/02/20 03:01:46;;;;;;;;;;;5.90;99.90;;;;;;5035976;28;20203;-75
2022/02/20 03:04:13;;;;;;;;;;;5.80;99.90;;;;;;5037465;28;19975;-75
2022/02/20 03:06:39;;;;;;;;;;;5.90;99.90;;;;;;5056319;28;19931;-75
2022/02/20 03:09:08;;;;;;;;;;;6.00;99.90;;;;;;5042080;28;19925;-76
2022/02/20 03:11:35;;;;;;;;;;;6.20;99.90;;;;;;5040128;28;19929;-75
2022/02/20 03:14:03;;;;;;;;;;;6.30;99.90;;;;;;5041880;28;20023;-75
2022/02/20 03:16:30;;;;;;;;;;;6.40;99.90;;;;;;5048707;28;19947;-76
2022/02/20 03:18:57;;;;;;;;;;;6.40;99.90;;;;;;5046666;28;19947;-76
2022/02/20 03:21:24;;;;;;;;;;;6.50;99.90;;;;;;5037179;28;19971;-76
2022/02/20 03:23:50;;;;;;;;;;;6.50;99.90;;;;;;5037655;28;19925;-74
2022/02/20 03:26:17;;;;;;;;;;;6.60;99.90;;;;;;5056763;28;19931;-76
2022/02/20 03:28:43;;;;;;;;;;;6.60;99.90;;;;;;5056034;28;19925;-77
2022/02/20 03:31:11;;;;;;;;;;;6.70;99.90;;;;;;5038988;28;20319;-76
2022/02/20 03:33:38;;;;;;;;;;;6.70;99.90;;;;;;5037585;28;20315;-75
2022/02/20 03:36:05;;;;;;;;;;;6.70;99.90;;;;;;5046106;28;19932;-76
2022/02/20 03:38:32;;;;;;;;;;;6.70;99.90;;;;;;5045896;28;19932;-76
2022/02/20 03:40:58;;;;;;;;;;;6.70;99.90;;;;;;5051111;28;19971;-75
2022/02/20 03:43:25;;;;;;;;;;;6.60;99.90;;;;;;5050880;28;19933;-76
2022/02/20 03:45:51;;;;;;;;;;;6.60;99.90;;;;;;5050995;28;20427;-76
2022/02/20 03:48:19;;;;;;;;;;;6.70;99.90;;;;;;5044218;28;19925;-75
2022/02/20 03:50:46;;;;;;;;;;;6.70;99.90;;;;;;5041073;28;19929;-76
2022/02/20 03:53:13;;;;;;;;;;;6.70;99.90;;;;;;5040313;28;19933;-75
2022/02/20 03:55:39;;;;;;;;;;;6.80;99.90;;;;;;5040537;28;19931;-75
2022/02/20 03:58:06;;;;;;;;;;;6.80;99.90;;;;;;5039999;28;20015;-75
2022/02/20 04:00:33;;;;;;;;;;;6.90;99.90;;;;;;5043530;28;19925;-76
2022/02/20 04:02:59;;;;;;;;;;;7.00;99.90;;;;;;5039125;28;19929;-76
2022/02/20 04:05:27;;;;;;;;;;;7.00;99.90;;;;;;5041862;28;19929;-75
2022/02/20 04:07:54;;;;;;;;;;;7.00;99.90;;;;;;5040562;28;19925;-75
2022/02/20 04:10:21;;;;;;;;;;;7.00;99.90;;;;;;5047480;28;20004;-76
2022/02/20 04:12:47;;;;;;;;;;;7.10;99.90;;;;;;5050336;28;19925;-74
2022/02/20 04:15:15;;;;;;;;;;;7.10;99.90;;;;;;5040686;28;19925;-75
2022/02/20 04:17:43;;;;;;;;;;;7.20;99.90;;;;;;5040608;28;19925;-75
2022/02/20 04:20:12;;;;;;;;;;;7.20;99.90;;;;;;5037206;28;20376;-75
2022/02/20 04:22:40;;;;;;;;;;;7.20;99.90;;;;;;5035435;28;19925;-75
2022/02/20 04:25:08;;;;;;;;;;;7.30;99.90;;;;;;5036293;28;19925;-74
2022/02/20 04:27:34;;;;;;;;;;;7.30;99.90;;;;;;5049406;28;19931;-74
2022/02/20 04:30:01;;;;;;;;;;;7.40;99.90;;;;;;5038074;28;19924;-75
2022/02/20 04:32:27;;;;;;;;;;;7.40;99.90;;;;;;5036168;28;19925;-77
2022/02/20 04:34:54;;;;;;;;;;;7.40;99.90;;;;;;5034633;28;19947;-74
2022/02/20 04:37:21;;;;;;;;;;;7.50;99.90;;;;;;5033625;28;20040;-74
2022/02/20 04:39:49;;;;;;;;;;;7.50;99.90;;;;;;5040962;28;19924;-75
2022/02/20 04:42:15;;;;;;;;;;;7.50;99.90;;;;;;5040510;28;20168;-74
2022/02/20 04:44:42;;;;;;;;;;;7.60;99.90;;;;;;5035233;28;19932;-75
2022/02/20 04:47:09;;;;;;;;;;;7.60;99.90;;;;;;5043421;28;20401;-75
2022/02/20 04:49:35;;;;;;;;;;;7.60;99.90;;;;;;5042297;28;19925;-75
2022/02/20 04:52:03;;;;;;;;;;;7.70;99.90;;;;;;5038363;28;19929;-75
2022/02/20 04:54:30;;;;;;;;;;;7.70;99.90;;;;;;5034607;28;19937;-74
2022/02/20 04:56:58;;;;;;;;;;;7.80;99.90;;;;;;5039960;28;19931;-75
2022/02/20 04:59:24;;;;;;;;;;;7.70;99.90;;;;;;5034742;28;19925;-74
2022/02/20 05:01:51;;;;;;;;;;;7.80;99.90;;;;;;5043428;28;19931;-74
2022/02/20 05:04:18;;;;;;;;;;;7.80;99.90;;;;;;5033225;28;19947;-75
2022/02/20 05:06:44;;;;;;;;;;;7.80;99.90;;;;;;5045306;28;20027;-75
2022/02/20 05:09:11;;;;;;;;;;;7.80;99.90;;;;;;5034288;28;20027;-75
2022/02/20 05:11:38;;;;;;;;;;;7.80;99.90;;;;;;5036421;28;19932;-75
2022/02/20 05:14:06;;;;;;;;;;;7.80;99.90;;;;;;5047478;28;20398;-75
2022/02/20 05:16:32;;;;;;;;;;;7.80;99.90;;;;;;5038481;28;19926;-75
2022/02/20 05:18:59;;;;;;;;;;;7.80;99.90;;;;;;5035946;28;19956;-74
2022/02/20 05:21:26;;;;;;;;;;;7.90;99.90;;;;;;5046585;28;20023;-75
2022/02/20 05:23:52;;;;;;;;;;;7.80;99.90;;;;;;5033181;28;19931;-75
2022/02/20 05:26:19;;;;;;;;;;;7.80;99.90;;;;;;5032444;28;19932;-74
2022/02/20 05:28:46;;;;;;;;;;;7.90;99.90;;;;;;5032838;28;19925;-75
2022/02/20 05:31:14;;;;;;;;;;;7.80;99.90;;;;;;5044815;28;19940;-75
2022/02/20 05:33:40;;;;;;;;;;;7.80;99.90;;;;;;5033314;28;20384;-75
2022/02/20 05:36:08;;;;;;;;;;;7.80;99.90;;;;;;5036708;28;20343;-75
2022/02/20 05:38:35;;;;;;;;;;;7.90;99.90;;;;;;5039545;28;19925;-75
2022/02/20 05:41:01;;;;;;;;;;;7.80;99.90;;;;;;5044963;28;19925;-75
2022/02/20 05:43:28;;;;;;;;;;;7.80;99.90;;;;;;5045065;28;19924;-75
2022/02/20 05:45:55;;;;;;;;;;;7.80;99.90;;;;;;5048465;28;20019;-76
2022/02/20 05:48:23;;;;;;;;;;;7.90;99.90;;;;;;5041424;28;19925;-75
2022/02/20 05:50:51;;;;;;;;;;;8.00;99.90;;;;;;5033029;28;19925;-75
2022/02/20 05:53:21;;;;;;;;;;;8.00;99.90;;;;;;5038510;28;20334;-77
2022/02/20 05:55:48;;;;;;;;;;;8.00;99.90;;;;;;5040274;28;19932;-75
2022/02/20 05:58:16;;;;;;;;;;;8.10;99.90;;;;;;5045566;28;19925;-76
2022/02/20 06:00:42;;;;;;;;;;;8.10;99.90;;;;;;5039912;28;19925;-76
2022/02/20 06:03:09;;;;;;;;;;;8.10;99.90;;;;;;5033756;28;19925;-75
2022/02/20 06:05:37;;;;;;;;;;;8.10;99.90;;;;;;5043929;28;19925;-75
2022/02/20 06:08:04;;;;;;;;;;;8.20;99.90;;;;;;5044649;28;19925;-75
2022/02/20 06:10:31;;;;;;;;;;;8.20;99.90;;;;;;5033153;28;19964;-75
2022/02/20 06:12:57;;;;;;;;;;;8.30;99.90;;;;;;5038138;28;20457;-75
2022/02/20 06:15:24;;;;;;;;;;;8.30;99.90;;;;;;5046646;28;20015;-74
2022/02/20 06:17:51;;;;;;;;;;;8.30;99.90;;;;;;5042795;28;19925;-75
2022/02/20 06:20:17;;;;;;;;;;;8.30;99.90;;;;;;5038260;28;19925;-75
2022/02/20 06:22:45;;;;;;;;;;;8.40;99.90;;;;;;5044075;28;19931;-75
2022/02/20 06:25:12;;;;;;;;;;;8.40;99.90;;;;;;5042252;28;19925;-75
2022/02/20 06:27:38;;;;;;;;;;;8.40;99.90;;;;;;5053104;28;20003;-73
2022/02/20 06:30:06;;;;;;;;;;;8.30;99.90;;;;;;5036665;28;19925;-73
2022/02/20 06:32:32;;;;;;;;;;;8.30;99.90;;;;;;5036360;28;19975;-73
2022/02/20 06:34:59;;;;;;;;;;;8.20;99.90;;;;;;5036751;28;19925;-73
2022/02/20 06:37:26;;;;;;;;;;;8.30;99.90;;;;;;5041953;28;19925;-73
2022/02/20 06:39:54;;;;;;;;;;;8.30;99.90;;;;;;5031079;28;20451;-73
2022/02/20 06:42:20;;;;;;;;;;;8.20;99.90;;;;;;5037053;28;19929;-73
2022/02/20 06:44:47;;;;;;;;;;;8.30;99.90;;;;;;5041483;28;20524;-73
2022/02/20 06:47:15;;;;;;;;;;;8.30;99.90;;;;;;5032080;28;19927;-73
2022/02/20 06:49:41;;;;;;;;;;;8.30;99.90;;;;;;5037381;28;20018;-73
2022/02/20 06:52:08;;;;;;;;;;;8.30;99.90;;;;;;5034536;28;19929;-73
2022/02/20 06:54:35;;;;;;;;;;;8.20;99.90;;;;;;5032129;28;19925;-73
2022/02/20 06:57:03;;;;;;;;;;;8.20;99.90;;;;;;5049247;28;20346;-73
2022/02/20 06:59:30;;;;;;;;;;;8.20;99.90;;;;;;5037241;28;19925;-73
2022/02/20 07:01:57;;;;;;;;;;;8.20;99.90;;;;;;5037031;28;19931;-73
2022/02/20 07:04:23;;;;;;;;;;;8.20;99.90;;;;;;5034546;28;19931;-73
2022/02/20 07:06:50;;;;;;;;;;;8.20;99.90;;;;;;5036716;28;19925;-73
2022/02/20 07:09:16;;;;;;;;;;;8.20;99.90;;;;;;5038275;28;19933;-73
2022/02/20 07:11:43;;;;;;;;;;;8.30;99.90;;;;;;5034127;28;19925;-74
2022/02/20 07:14:11;;;;;;;;;;;8.30;99.90;;;;;;5037220;28;19925;-73
2022/02/20 07:16:38;;;;;;;;;;;8.20;99.90;;;;;;5040195;28;19925;-73
2022/02/20 07:19:04;;;;;;;;;;;8.30;99.90;;;;;;5029363;28;19925;-73
2022/02/20 07:21:31;;;;;;;;;;;8.20;99.90;;;;;;5031317;28;19931;-73
2022/02/20 07:23:59;;;;;;;;;;;8.30;99.90;;;;;;5031214;28;19960;-73
2022/02/20 07:26:28;;;;;;;;;;;8.30;99.90;;;;;;5032853;28;19929;-73
2022/02/20 07:28:54;;;;;;;;;;;8.30;99.90;;;;;;5032119;28;19960;-73
2022/02/20 07:31:23;;;;;;;;;;;8.30;99.90;;;;;;5046270;28;20300;-73
2022/02/20 07:33:52;;;;;;;;;;;8.30;99.90;;;;;;5039937;28;19924;-73
2022/02/20 07:36:19;;;;;;;;;;;8.30;99.90;;;;;;5033319;28;19925;-73
2022/02/20 07:38:46;;;;;;;;;;;8.30;99.90;;;;;;5040101;28;20391;-72
2022/02/20 07:41:13;;;;;;;;;;;8.40;99.90;;;;;;5038981;28;20371;-72
2022/02/20 07:43:39;;;;;;;;;;;8.40;99.90;;;;;;5047368;28;19964;-73
2022/02/20 07:46:06;;;;;;;;;;;8.40;99.90;;;;;;5032949;28;19925;-73
2022/02/20 07:48:34;;;;;;;;;;;8.40;99.90;;;;;;5038162;28;20388;-74
2022/02/20 07:51:01;;;;;;;;;;;8.40;99.90;;;;;;5044267;28;19929;-73
2022/02/20 07:53:27;;;;;;;;;;;8.40;99.90;;;;;;5035604;28;19925;-73
2022/02/20 07:55:54;;;;;;;;;;;8.40;99.90;;;;;;5035621;28;19948;-73
2022/02/20 07:58:21;;;;;;;;;;;8.40;99.90;;;;;;5034694;28;19925;-73
2022/02/20 08:00:47;;;;;;;;;;;8.40;99.90;;;;;;5037439;28;19931;-73
2022/02/20 08:03:14;;;;;;;;;;;8.50;99.90;;;;;;5049517;28;19931;-73
2022/02/20 08:05:42;;;;;;;;;;;8.50;99.90;;;;;;5041799;28;19940;-73
2022/02/20 08:08:09;;;;;;;;;;;8.60;99.90;;;;;;5035088;28;20020;-73
2022/02/20 08:10:36;;;;;;;;;;;8.60;99.90;;;;;;5039178;28;20303;-73
2022/02/20 08:13:03;;;;;;;;;;;8.50;99.90;;;;;;5035732;28;19931;-74
2022/02/20 08:15:30;;;;;;;;;;;8.50;99.90;;;;;;5041305;28;19931;-73
2022/02/20 08:17:58;;;;;;;;;;;8.60;99.90;;;;;;5034096;28;20369;-74
2022/02/20 08:20:24;;;;;;;;;;;8.60;99.90;;;;;;5043380;28;19925;-74
2022/02/20 08:22:52;;;;;;;;;;;8.60;99.90;;;;;;5051471;28;20406;-73
2022/02/20 08:25:19;;;;;;;;;;;8.70;99.90;;;;;;5043552;28;19925;-73
2022/02/20 08:27:46;;;;;;;;;;;8.60;99.90;;;;;;5045448;28;19925;-74
2022/02/20 08:30:13;;;;;;;;;;;8.70;99.90;;;;;;5052680;28;19932;-74
2022/02/20 08:32:40;;;;;;;;;;;8.70;99.90;;;;;;5036699;28;19971;-74
2022/02/20 08:35:08;;;;;;;;;;;8.80;99.90;;;;;;5038250;28;19936;-73
2022/02/20 08:37:36;;;;;;;;;;;8.70;99.90;;;;;;5033976;28;19929;-74
2022/02/20 08:40:05;;;;;;;;;;;8.80;99.90;;;;;;5039347;28;20299;-74
2022/02/20 08:42:32;;;;;;;;;;;8.90;99.90;;;;;;5041448;28;19932;-74
2022/02/20 08:44:59;;;;;;;;;;;9.00;99.90;;;;;;5043574;28;19931;-74
2022/02/20 08:47:25;;;;;;;;;;;9.10;99.90;;;;;;5038328;28;19947;-72
2022/02/20 08:49:52;;;;;;;;;;;9.20;99.90;;;;;;5033896;28;19925;-72
2022/02/20 08:52:19;;;;;;;;;;;9.30;99.90;;;;;;5040756;28;20390;-72
2022/02/20 08:54:46;;;;;;;;;;;9.30;99.90;;;;;;5051897;28;20368;-74
2022/02/20 08:57:14;;;;;;;;;;;9.40;99.90;;;;;;5048956;28;20023;-73
2022/02/20 08:59:40;;;;;;;;;;;9.30;99.90;;;;;;5038652;28;19929;-74
2022/02/20 09:02:09;;;;;;;;;;;9.40;99.90;;;;;;5053450;28;19978;-72
2022/02/20 09:04:36;;;;;;;;;;;9.40;99.90;;;;;;5053633;28;19968;-73
2022/02/20 09:07:03;;;;;;;;;;;9.40;99.90;;;;;;5037788;28;19964;-73
2022/02/20 09:09:30;;;;;;;;;;;9.40;99.90;;;;;;5033898;28;20431;-78
2022/02/20 09:11:57;;;;;;;;;;;9.40;99.90;;;;;;5039567;28;19925;-73
2022/02/20 09:14:25;;;;;;;;;;;9.50;99.90;;;;;;5034280;28;19933;-70
2022/02/20 09:16:52;;;;;;;;;;;9.50;99.90;;;;;;5033310;28;19948;-70
2022/02/20 09:19:18;;;;;;;;;;;9.50;99.90;;;;;;5036672;28;20296;-70
2022/02/20 09:21:45;;;;;;;;;;;9.60;99.90;;;;;;5034943;28;19931;-70
2022/02/20 09:24:12;;;;;;;;;;;9.60;99.90;;;;;;5034703;28;19925;-70
2022/02/20 09:26:57;;;;;;;;;;;9.60;99.90;;;;;;5045835;27;20379;-71
2022/02/20 09:29:24;;;;;;;;;;;9.70;99.90;;;;;;5025585;28;19925;-71
2022/02/20 09:31:50;;;;;;;;;;;10.50;99.90;;;;;;5029857;28;19925;-75
2022/02/20 09:34:17;;;;;;;;;;;9.80;99.90;;;;;;5024950;28;19932;-75
2022/02/20 09:36:44;;;;;;;;;;;9.80;99.90;;;;;;5029679;28;19984;-75
2022/02/20 09:39:10;;;;;;;;;;;9.80;99.90;;;;;;5016612;28;19925;-74
2022/02/20 09:41:37;;;;;;;;;;;9.80;99.90;;;;;;5025582;28;20277;-75
2022/02/20 09:44:05;;;;;;;;;;;9.90;99.90;;;;;;5021013;28;19926;-74
2022/02/20 09:46:32;;;;;;;;;;;10.00;99.90;;;;;;5025715;28;19970;-75
2022/02/20 09:49:00;;;;;;;;;;;10.00;99.90;;;;;;5020097;28;19925;-75
2022/02/20 09:51:28;;;;;;;;;;;10.00;99.90;;;;;;5025067;28;19932;-74
2022/02/20 09:53:56;;;;;;;;;;;10.00;99.90;;;;;;5025511;28;19925;-74
2022/02/20 09:56:23;;;;;;;;;;;10.00;99.90;;;;;;5023644;28;19969;-74
2022/02/20 09:58:50;;;;;;;;;;;10.10;99.90;;;;;;5015870;28;19932;-74
2022/02/20 10:01:18;;;;;;;;;;;10.10;99.90;;;;;;5022731;28;19926;-74
2022/02/20 10:03:45;;;;;;;;;;;10.20;99.90;;;;;;5024967;28;20384;-76
2022/02/20 10:06:14;;;;;;;;;;;10.10;99.90;;;;;;5009953;28;20392;-75
2022/02/20 10:08:42;;;;;;;;;;;10.10;99.90;;;;;;5011095;28;19925;-76
2022/02/20 10:11:15;;;;;;;;;;;10.10;99.90;;;;;;5011642;28;19926;-74
2022/02/20 10:13:42;;;;;;;;;;;10.10;99.90;;;;;;5012587;28;19932;-74
2022/02/20 10:16:24;;;;;;;;;;;10.10;99.90;;;;;;5013361;28;19932;-74
2022/02/20 10:18:51;;;;;;;;;;;10.10;99.90;;;;;;5007923;28;19943;-75
2022/02/20 10:21:18;;;;;;;;;;;10.10;99.90;;;;;;5024817;28;19971;-75
2022/02/20 10:23:45;;;;;;;;;;;10.00;99.90;;;;;;5026381;28;20375;-75
2022/02/20 10:26:13;;;;;;;;;;;10.10;99.90;;;;;;5022327;28;19926;-74
2022/02/20 10:28:54;;;;;;;;;;;10.10;99.90;;;;;;5026209;28;19933;-72
2022/02/20 10:34:16;;;;;;;;;;;10.20;99.90;;;;;;5043383;28;19924;-73
2022/02/20 10:36:47;;;;;;;;;;;10.20;99.90;;;;;;5032458;28;20330;-75
2022/02/20 10:39:17;;;;;;;;;;;10.20;99.90;;;;;;5028989;28;19925;-75
2022/02/20 10:41:44;;;;;;;;;;;10.20;99.90;;;;;;5042042;28;19925;-75
2022/02/20 10:44:10;;;;;;;;;;;10.10;99.90;;;;;;5034269;28;19925;-76
2022/02/20 10:46:37;;;;;;;;;;;10.10;99.90;;;;;;5032060;28;19945;-75
2022/02/20 10:49:04;;;;;;;;;;;10.10;99.90;;;;;;5017491;27;19943;-76
2022/02/20 10:51:39;;;;;;;;;;;10.00;99.90;;;;;;5016409;28;19955;-75
2022/02/20 10:54:06;;;;;;;;;;;10.00;99.90;;;;;;5017869;28;19939;-76
2022/02/20 10:56:39;;;;;;;;;;;10.00;99.90;;;;;;5019517;28;19929;-77
2022/02/20 10:59:06;;;;;;;;;;;10.00;99.90;;;;;;5037653;27;19926;-75
2022/02/20 11:01:33;;;;;;;;;;;9.90;99.90;;;;;;5018283;27;19934;-76
2022/02/20 11:04:02;;;;;;;;;;;9.90;99.90;;;;;;5016115;28;19956;-77
2022/02/20 11:06:30;;;;;;;;;;;9.80;99.90;;;;;;5022024;28;20392;-77
2022/02/20 11:08:58;;;;;;;;;;;9.90;99.90;;;;;;5022760;28;20012;-77
2022/02/20 11:11:40;;;;;;;;;;;9.90;99.90;;;;;;5019973;28;19925;-77
2022/02/20 11:14:08;;;;;;;;;;;9.90;99.90;;;;;;5019678;28;20024;-78
2022/02/20 11:16:39;;;;;;;;;;;10.00;99.90;;;;;;5017734;28;19956;-77
2022/02/20 11:19:05;;;;;;;;;;;10.00;99.90;;;;;;5020065;28;19940;-78
2022/02/20 11:21:33;;;;;;;;;;;10.00;99.90;;;;;;5015833;28;20380;-76
2022/02/20 11:24:02;;;;;;;;;;;10.00;99.90;;;;;;5015008;27;19929;-75
2022/02/20 11:26:29;;;;;;;;;;;10.10;99.90;;;;;;5015503;27;19936;-75
2022/02/20 11:28:56;;;;;;;;;;;10.10;99.90;;;;;;5014729;28;20205;-74
2022/02/20 11:31:24;;;;;;;;;;;10.00;99.90;;;;;;5026599;27;20295;-74
2022/02/20 11:33:55;;;;;;;;;;;10.00;99.90;;;;;;5027606;28;20017;-74
2022/02/20 11:36:24;;;;;;;;;;;10.10;99.90;;;;;;5035006;28;19928;-74
2022/02/20 11:39:06;;;;;;;;;;;10.10;99.90;;;;;;5024151;28;20399;-73
2022/02/20 11:41:33;;;;;;;;;;;10.10;99.90;;;;;;5026010;28;19986;-74
2022/02/20 11:44:11;;;;;;;;;;;10.10;99.90;;;;;;5016802;28;19930;-73
2022/02/20 11:46:45;;;;;;;;;;;10.20;99.90;;;;;;4992760;28;19933;-73
2022/02/20 11:49:29;;;;;;;;;;;10.20;99.90;;;;;;5001958;28;19934;-73
2022/02/20 11:51:57;;;;;;;;;;;10.20;99.90;;;;;;5006950;28;19996;-77
2022/02/20 11:54:28;;;;;;;;;;;10.30;99.90;;;;;;5010249;28;20363;-73
2022/02/20 11:57:15;;;;;;;;;;;10.20;99.90;;;;;;5013753;28;20231;-74
2022/02/20 12:00:04;;;;;;;;;;;10.30;99.90;;;;;;5011462;28;20423;-74
2022/02/20 12:02:32;;;;;;;;;;;10.30;99.90;;;;;;5019026;28;19926;-73
2022/02/20 12:05:06;;;;;;;;;;;10.30;99.90;;;;;;5011506;28;19925;-76
2022/02/20 12:07:36;;;;;;;;;;;10.30;99.90;;;;;;5015412;28;20441;-74
2022/02/20 12:10:24;;;;;;;;;;;10.30;99.90;;;;;;5023157;28;19990;-74
2022/02/20 12:12:53;;;;;;;;;;;10.40;99.90;;;;;;5011080;28;19925;-74
2022/02/20 12:15:25;;;;;;;;;;;10.30;99.90;;;;;;5017278;28;20383;-74
2022/02/20 12:17:59;;;;;;;;;;;10.40;99.90;;;;;;5010562;28;19925;-73
2022/02/20 12:20:46;;;;;;;;;;;10.30;99.90;;;;;;5054453;27;20388;-74
2022/02/20 12:23:25;;;;;;;;;;;10.40;99.90;;;;;;5011463;28;19933;-72
2022/02/20 12:25:52;;;;;;;;;;;10.40;99.90;;;;;;5011961;28;19947;-73
2022/02/20 12:28:32;;;;;;;;;;;10.40;99.90;;;;;;5013279;28;20273;-74
2022/02/20 12:30:59;;;;;;;;;;;10.40;99.90;;;;;;5012298;28;20020;-74
2022/02/20 12:33:29;;;;;;;;;;;10.40;99.90;;;;;;5024757;28;20016;-73
2022/02/20 12:35:56;;;;;;;;;;;10.40;99.90;;;;;;5018318;28;20378;-74
2022/02/20 12:38:26;;;;;;;;;;;10.40;99.90;;;;;;5011055;28;20028;-74
2022/02/20 12:40:53;;;;;;;;;;;10.40;99.90;;;;;;5011362;28;20552;-74
2022/02/20 12:43:19;;;;;;;;;;;10.40;99.90;;;;;;5020496;27;19929;-73
2022/02/20 12:45:48;;;;;;;;;;;10.40;99.90;;;;;;5016227;28;19933;-74
2022/02/20 12:48:15;;;;;;;;;;;10.40;99.90;;;;;;5014212;28;20459;-74
2022/02/20 12:50:43;;;;;;;;;;;10.50;99.90;;;;;;5012033;28;19925;-74
2022/02/20 12:53:10;;;;;;;;;;;10.50;99.90;;;;;;5010966;28;19933;-74
2022/02/20 12:55:41;;;;;;;;;;;10.50;99.90;;;;;;5027640;27;19925;-73
2022/02/20 12:58:08;;;;;;;;;;;10.50;99.90;;;;;;5009663;28;19929;-74
2022/02/20 13:00:36;;;;;;;;;;;10.60;99.90;;;;;;5000728;28;19930;-74
2022/02/20 13:03:10;;;;;;;;;;;10.60;99.90;;;;;;5000895;28;19929;-74
2022/02/20 13:05:38;;;;;;;;;;;10.50;99.90;;;;;;5006933;28;19935;-74
2022/02/20 13:08:07;;;;;;;;;;;10.50;99.90;;;;;;5000094;28;19934;-74
2022/02/20 13:10:35;;;;;;;;;;;10.50;99.90;;;;;;5002268;28;19936;-74
2022/02/20 13:13:03;;;;;;;;;;;10.50;99.90;;;;;;4999418;28;20346;-74
2022/02/20 13:15:31;;;;;;;;;;;10.50;99.90;;;;;;5000146;28;19974;-73
2022/02/20 13:18:04;;;;;;;;;;;10.50;99.90;;;;;;5001044;28;19936;-74
2022/02/20 13:20:34;;;;;;;;;;;10.50;99.90;;;;;;5001250;28;19926;-74
2022/02/20 13:23:13;;;;;;;;;;;10.50;99.90;;;;;;4999818;28;19929;-74
2022/02/20 13:25:40;;;;;;;;;;;10.50;99.90;;;;;;4996497;28;19990;-73
2022/02/20 13:28:09;;;;;;;;;;;10.40;99.90;;;;;;5002455;28;20415;-75
2022/02/20 13:30:36;;;;;;;;;;;10.40;99.90;;;;;;5000120;28;19929;-73
2022/02/20 13:33:07;;;;;;;;;;;10.40;99.90;;;;;;4998898;28;19933;-74
2022/02/20 13:35:35;;;;;;;;;;;10.40;99.90;;;;;;5012478;28;20296;-74
2022/02/20 13:38:03;;;;;;;;;;;10.30;99.90;;;;;;4999796;28;20032;-74
2022/02/20 13:40:30;;;;;;;;;;;10.40;99.90;;;;;;5000246;28;19933;-74
2022/02/20 13:43:07;;;;;;;;;;;10.30;99.90;;;;;;4999528;28;19952;-74
2022/02/20 13:45:33;;;;;;;;;;;10.20;99.90;;;;;;4999536;28;19940;-74
2022/02/20 13:48:00;;;;;;;;;;;10.20;99.90;;;;;;4997660;28;19933;-75
2022/02/20 13:50:28;;;;;;;;;;;10.10;99.90;;;;;;4997744;28;19929;-78
2022/02/20 13:52:59;;;;;;;;;;;10.10;99.90;;;;;;5006222;28;19926;-76
2022/02/20 13:55:27;;;;;;;;;;;10.00;99.90;;;;;;5016755;28;19936;-78
2022/02/20 13:57:55;;;;;;;;;;;10.00;99.90;;;;;;5019369;28;20095;-77
2022/02/20 14:00:22;;;;;;;;;;;10.00;99.90;;;;;;5019651;28;19933;-75
2022/02/20 14:02:49;;;;;;;;;;;10.00;99.90;;;;;;5017167;28;19925;-76
2022/02/20 14:05:20;;;;;;;;;;;10.00;99.90;;;;;;5017649;27;19925;-76
2022/02/20 14:07:47;;;;;;;;;;;9.90;99.90;;;;;;5010270;28;19925;-75
2022/02/20 14:10:17;;;;;;;;;;;10.00;99.90;;;;;;5009165;28;19925;-76
2022/02/20 14:12:45;;;;;;;;;;;9.90;99.90;;;;;;5017865;28;19970;-75
2022/02/20 14:15:14;;;;;;;;;;;9.90;99.90;;;;;;5011237;28;19925;-77
2022/02/20 14:17:47;;;;;;;;;;;9.90;99.90;;;;;;5010645;28;19933;-77
2022/02/20 14:20:15;;;;;;;;;;;9.90;99.90;;;;;;5018681;28;19957;-77
2022/02/20 14:22:42;;;;;;;;;;;9.80;99.90;;;;;;5019774;28;19925;-76
2022/02/20 14:25:10;;;;;;;;;;;9.80;99.90;;;;;;5010892;28;19925;-76
2022/02/20 14:27:41;;;;;;;;;;;9.80;99.90;;;;;;5010764;28;20046;-75
2022/02/20 14:30:23;;;;;;;;;;;9.80;99.90;;;;;;5031981;28;20469;-77
2022/02/20 14:32:54;;;;;;;;;;;9.80;99.90;;;;;;5016783;28;19926;-76